Time;durP1;ratioP1;P1;durP2;ratioP2;P2;SDS_P1;SDS_P2;PMS_P1;PMS_P2;Temp;Humidity;BMP_temperature;BMP_pressure;BME280_temperature;BME280_humidity;BME280_pressure;Samples;Min_cycle;Max_cycle;Signal;HPM_P1;HPM_P2
2020/12/06 00:00:57;;;;;;;32.75;20.35;;;3.70;99.90;;;;;;5052259;28;20534;-52
2020/12/06 00:03:23;;;;;;;32.97;20.23;;;3.60;99.90;;;;;;5052835;28;20442;-50
2020/12/06 00:05:48;;;;;;;34.20;19.95;;;3.60;99.90;;;;;;5052777;28;20082;-51
2020/12/06 00:08:14;;;;;;;33.45;19.65;;;3.60;99.90;;;;;;5052699;28;20031;-49
2020/12/06 00:10:39;;;;;;;36.53;20.35;;;3.60;99.90;;;;;;5052840;28;20056;-48
2020/12/06 00:13:05;;;;;;;35.90;21.33;;;3.60;99.90;;;;;;5052692;28;20039;-49
2020/12/06 00:15:30;;;;;;;35.42;21.13;;;3.60;99.90;;;;;;5052700;28;20106;-47
2020/12/06 00:17:56;;;;;;;39.88;19.50;;;3.70;99.90;;;;;;5052551;28;20051;-50
2020/12/06 00:20:23;;;;;;;35.20;21.38;;;3.80;99.90;;;;;;5052009;28;20095;-53
2020/12/06 00:22:48;;;;;;;35.22;21.05;;;3.80;99.90;;;;;;5052610;28;20025;-47
2020/12/06 00:25:14;;;;;;;33.33;21.00;;;3.90;99.90;;;;;;5052578;28;20085;-47
2020/12/06 00:27:39;;;;;;;37.58;21.42;;;3.90;99.90;;;;;;5034557;28;20067;-49
2020/12/06 00:30:07;;;;;;;38.60;20.42;;;3.90;99.90;;;;;;5052141;28;20254;-48
2020/12/06 00:32:33;;;;;;;33.22;18.70;;;3.80;99.90;;;;;;5052245;28;20116;-49
2020/12/06 00:34:58;;;;;;;38.60;21.55;;;3.70;99.90;;;;;;5052290;28;20555;-50
2020/12/06 00:37:24;;;;;;;35.75;20.73;;;3.70;99.90;;;;;;5052281;28;20025;-50
2020/12/06 00:39:49;;;;;;;35.10;20.65;;;3.70;99.90;;;;;;5051972;28;20025;-49
2020/12/06 00:42:15;;;;;;;34.58;20.75;;;3.70;99.90;;;;;;5052119;28;20037;-49
2020/12/06 00:44:40;;;;;;;32.00;19.83;;;3.70;99.90;;;;;;5052302;28;20032;-49
2020/12/06 00:47:06;;;;;;;32.55;20.27;;;3.70;99.90;;;;;;5052018;28;20509;-48
2020/12/06 00:49:32;;;;;;;34.40;20.30;;;3.80;99.90;;;;;;5051979;28;20123;-51
2020/12/06 00:51:58;;;;;;;35.67;20.33;;;3.70;99.90;;;;;;5052210;28;20505;-49
2020/12/06 00:54:24;;;;;;;36.15;19.92;;;3.70;99.90;;;;;;5052077;28;20017;-51
2020/12/06 00:56:59;;;;;;;38.63;20.77;;;3.80;99.90;;;;;;5052062;28;20021;-48
2020/12/06 00:59:24;;;;;;;33.65;20.48;;;3.70;99.90;;;;;;5033301;28;20104;-50
2020/12/06 01:01:50;;;;;;;35.85;21.02;;;3.70;99.90;;;;;;5051546;28;20104;-47
2020/12/06 01:04:16;;;;;;;31.02;19.88;;;3.70;99.90;;;;;;5052012;28;20114;-52
2020/12/06 01:06:41;;;;;;;34.63;21.58;;;3.70;99.90;;;;;;5052099;28;20020;-49
2020/12/06 01:09:07;;;;;;;34.22;21.17;;;3.70;99.90;;;;;;5051825;28;20496;-46
2020/12/06 01:11:33;;;;;;;35.10;21.08;;;3.70;99.90;;;;;;5051191;28;20389;-49
2020/12/06 01:13:58;;;;;;;33.80;19.85;;;3.60;99.90;;;;;;5051777;28;20430;-50
2020/12/06 01:16:24;;;;;;;37.50;21.52;;;3.60;99.90;;;;;;5051518;28;20028;-47
2020/12/06 01:18:49;;;;;;;35.60;21.55;;;3.60;99.90;;;;;;5051294;28;20029;-47
2020/12/06 01:21:15;;;;;;;40.15;23.15;;;3.70;99.90;;;;;;5051400;28;20060;-49
2020/12/06 01:23:40;;;;;;;41.90;23.13;;;3.70;99.90;;;;;;5051464;28;20024;-47
2020/12/06 01:26:09;;;;;;;40.15;23.00;;;3.70;99.90;;;;;;5051540;28;20066;-49
2020/12/06 01:28:35;;;;;;;38.72;22.85;;;3.70;99.90;;;;;;5051557;28;20036;-51
2020/12/06 01:31:00;;;;;;;41.45;23.02;;;3.80;99.90;;;;;;5050887;28;20033;-47
2020/12/06 01:33:26;;;;;;;38.80;21.80;;;3.80;99.90;;;;;;5051705;28;20032;-47
2020/12/06 01:35:51;;;;;;;38.63;20.77;;;3.70;99.90;;;;;;5051452;28;20052;-50
2020/12/06 01:38:17;;;;;;;39.97;23.83;;;3.80;99.90;;;;;;5051056;28;20025;-50
2020/12/06 01:40:43;;;;;;;41.33;22.40;;;3.80;99.90;;;;;;5050853;28;20079;-51
2020/12/06 01:43:09;;;;;;;43.58;23.20;;;3.90;99.90;;;;;;5051178;28;20549;-47
2020/12/06 01:45:35;;;;;;;38.55;23.25;;;3.90;99.90;;;;;;5051118;28;20020;-50
2020/12/06 01:48:01;;;;;;;37.28;21.48;;;3.90;99.90;;;;;;5051055;28;20100;-48
2020/12/06 01:50:27;;;;;;;39.38;21.83;;;3.90;99.90;;;;;;5050718;28;20028;-51
2020/12/06 01:52:52;;;;;;;36.80;21.10;;;4.00;99.90;;;;;;5050721;28;20383;-49
2020/12/06 01:55:18;;;;;;;38.97;22.27;;;4.00;99.90;;;;;;5050744;28;20063;-48
2020/12/06 01:57:44;;;;;;;36.10;21.58;;;4.00;99.90;;;;;;5051551;28;20025;-48
2020/12/06 02:00:09;;;;;;;37.38;22.80;;;4.00;99.90;;;;;;5050621;28;20021;-49
2020/12/06 02:02:35;;;;;;;39.97;21.83;;;4.10;99.90;;;;;;5050734;28;20084;-49
2020/12/06 02:05:04;;;;;;;38.63;20.83;;;4.00;99.90;;;;;;5050886;28;20111;-46
2020/12/06 02:07:32;;;;;;;38.75;21.25;;;4.10;99.90;;;;;;5051007;28;20028;-49
2020/12/06 02:09:58;;;;;;;33.63;22.02;;;4.20;99.90;;;;;;5049719;28;20047;-50
2020/12/06 02:12:23;;;;;;;33.47;20.67;;;4.20;99.90;;;;;;5050804;28;20497;-46
2020/12/06 02:14:49;;;;;;;32.78;19.65;;;4.20;99.90;;;;;;5050370;28;20029;-47
2020/12/06 02:17:14;;;;;;;29.88;19.20;;;4.10;99.90;;;;;;5050529;28;20025;-47
2020/12/06 02:19:41;;;;;;;33.67;20.90;;;4.10;99.90;;;;;;5068133;22;20155;-50
2020/12/06 02:22:07;;;;;;;30.90;18.85;;;4.10;99.90;;;;;;5090131;28;20116;-48
2020/12/06 02:24:32;;;;;;;28.88;18.88;;;4.10;99.90;;;;;;5090875;28;20099;-48
2020/12/06 02:26:58;;;;;;;34.80;20.67;;;4.10;99.90;;;;;;5091094;28;20028;-49
2020/12/06 02:29:24;;;;;;;29.55;19.48;;;4.20;99.90;;;;;;5089887;28;20089;-45
2020/12/06 02:31:49;;;;;;;32.40;20.30;;;4.30;99.90;;;;;;5089531;28;20036;-48
2020/12/06 02:34:15;;;;;;;32.90;20.05;;;4.30;99.90;;;;;;5090421;28;20042;-47
2020/12/06 02:36:41;;;;;;;31.55;19.02;;;4.20;99.90;;;;;;5090472;28;20031;-47
2020/12/06 02:39:09;;;;;;;29.92;18.98;;;4.20;99.90;;;;;;5090209;28;20024;-51
2020/12/06 02:41:36;;;;;;;26.70;16.38;;;4.20;99.90;;;;;;5090514;28;20031;-47
2020/12/06 02:44:02;;;;;;;30.50;19.73;;;4.10;99.90;;;;;;5090599;28;20025;-46
2020/12/06 02:46:28;;;;;;;29.33;18.58;;;4.20;99.90;;;;;;5090669;28;20052;-44
2020/12/06 02:48:53;;;;;;;28.02;18.08;;;4.20;99.90;;;;;;5072258;28;20051;-50
2020/12/06 02:51:19;;;;;;;30.98;18.48;;;4.20;99.90;;;;;;5089709;28;20396;-53
2020/12/06 02:53:44;;;;;;;27.17;18.42;;;4.40;99.90;;;;;;5090421;28;20078;-49
2020/12/06 02:56:10;;;;;;;33.22;19.60;;;4.50;99.90;;;;;;5090271;28;20398;-48
2020/12/06 02:58:35;;;;;;;24.92;16.70;;;4.40;99.90;;;;;;5090349;28;20107;-50
2020/12/06 03:01:01;;;;;;;33.83;19.00;;;4.30;99.90;;;;;;5089438;28;20064;-47
2020/12/06 03:03:26;;;;;;;25.65;17.65;;;4.30;99.90;;;;;;5090484;28;20032;-49
2020/12/06 03:05:52;;;;;;;28.13;17.23;;;4.30;99.90;;;;;;5090446;28;20024;-46
2020/12/06 03:08:17;;;;;;;32.28;18.88;;;4.40;99.90;;;;;;5090297;28;20020;-44
2020/12/06 03:10:43;;;;;;;29.67;18.50;;;4.40;99.90;;;;;;5089518;28;20032;-50
2020/12/06 03:13:08;;;;;;;27.75;17.70;;;4.40;99.90;;;;;;5072658;28;20028;-48
2020/12/06 03:15:34;;;;;;;26.58;18.27;;;4.40;99.90;;;;;;5094287;28;20484;-50
2020/12/06 03:17:59;;;;;;;31.55;18.17;;;4.50;99.90;;;;;;5094028;28;20112;-46
2020/12/06 03:20:25;;;;;;;26.42;16.65;;;4.40;99.90;;;;;;5075146;28;20582;-51
2020/12/06 03:22:50;;;;;;;23.75;16.33;;;4.50;99.90;;;;;;5094298;28;20481;-49
2020/12/06 03:25:16;;;;;;;24.10;16.98;;;4.50;99.90;;;;;;5094005;28;20501;-48
2020/12/06 03:27:41;;;;;;;25.02;16.65;;;4.50;99.90;;;;;;5094031;28;20020;-50
2020/12/06 03:30:07;;;;;;;26.75;18.33;;;4.60;99.90;;;;;;5092861;28;20060;-53
2020/12/06 03:32:32;;;;;;;29.83;17.48;;;4.70;99.90;;;;;;5075304;28;20028;-50
2020/12/06 03:34:58;;;;;;;27.52;17.23;;;4.60;99.90;;;;;;5093813;28;20082;-47
2020/12/06 03:37:23;;;;;;;26.63;17.30;;;4.70;99.90;;;;;;5075511;28;20016;-50
2020/12/06 03:39:49;;;;;;;23.27;16.42;;;4.70;99.90;;;;;;5092940;28;20099;-51
2020/12/06 03:42:15;;;;;;;26.95;18.17;;;4.70;99.90;;;;;;5093405;28;20028;-47
2020/12/06 03:44:41;;;;;;;26.25;17.65;;;4.80;99.90;;;;;;5093763;28;20480;-49
2020/12/06 03:47:06;;;;;;;27.55;17.42;;;4.90;99.90;;;;;;5093345;28;20020;-47
2020/12/06 03:49:32;;;;;;;25.50;17.83;;;4.90;99.90;;;;;;5092795;28;20077;-46
2020/12/06 03:51:57;;;;;;;30.60;18.35;;;4.80;99.90;;;;;;5093448;28;20378;-50
2020/12/06 03:54:23;;;;;;;26.30;17.23;;;4.80;99.90;;;;;;5093389;28;20100;-49
2020/12/06 03:56:48;;;;;;;27.17;18.13;;;4.70;99.90;;;;;;5093280;28;20020;-48
2020/12/06 03:59:14;;;;;;;24.70;16.88;;;4.70;99.90;;;;;;5091654;28;20032;-49
2020/12/06 04:01:40;;;;;;;24.80;17.05;;;4.70;99.90;;;;;;5093026;28;20030;-48
2020/12/06 04:04:05;;;;;;;26.00;17.33;;;4.70;99.90;;;;;;5093214;28;20020;-53
2020/12/06 04:06:30;;;;;;;26.05;17.20;;;4.60;99.90;;;;;;5093732;28;20542;-49
2020/12/06 04:08:56;;;;;;;25.08;16.70;;;4.60;99.90;;;;;;5093271;28;20042;-49
2020/12/06 04:11:21;;;;;;;24.63;15.90;;;4.60;99.90;;;;;;5092225;28;20028;-53
2020/12/06 04:13:47;;;;;;;27.73;17.33;;;4.60;99.90;;;;;;5093352;28;20024;-46
2020/12/06 04:16:12;;;;;;;27.52;17.27;;;4.60;99.90;;;;;;5092816;28;20028;-46
2020/12/06 04:18:38;;;;;;;23.67;16.35;;;4.60;99.90;;;;;;5093071;28;20031;-47
2020/12/06 04:21:03;;;;;;;27.90;17.35;;;4.60;99.90;;;;;;5092090;28;20107;-51
2020/12/06 04:23:29;;;;;;;27.55;17.25;;;4.70;99.90;;;;;;5093010;28;20546;-46
2020/12/06 04:25:55;;;;;;;26.02;16.95;;;4.60;99.90;;;;;;5093047;28;20085;-47
2020/12/06 04:28:20;;;;;;;27.77;17.50;;;4.60;99.90;;;;;;5093007;28;20016;-48
2020/12/06 04:30:46;;;;;;;23.80;16.10;;;4.50;99.90;;;;;;5092093;28;20054;-50
2020/12/06 04:33:12;;;;;;;26.08;17.42;;;4.50;99.90;;;;;;5092017;28;20047;-46
2020/12/06 04:35:37;;;;;;;23.88;16.75;;;4.50;99.90;;;;;;5093020;28;20481;-45
2020/12/06 04:38:03;;;;;;;25.20;16.60;;;4.60;99.90;;;;;;5096828;28;20028;-48
2020/12/06 04:40:29;;;;;;;24.23;16.67;;;4.60;99.90;;;;;;5103163;28;20504;-47
2020/12/06 04:42:55;;;;;;;25.25;17.58;;;4.60;99.90;;;;;;5093838;28;20031;-47
2020/12/06 04:45:20;;;;;;;25.83;16.75;;;4.60;99.90;;;;;;5092571;28;20028;-50
2020/12/06 04:47:55;;;;;;;27.65;17.98;;;4.60;99.90;;;;;;5092522;28;20047;-50
2020/12/06 04:50:30;;;;;;;26.10;17.13;;;4.60;99.90;;;;;;5091538;28;20113;-50
2020/12/06 04:52:58;;;;;;;26.08;17.15;;;4.70;99.90;;;;;;5092283;28;20173;-46
2020/12/06 04:55:30;;;;;;;26.75;17.17;;;4.60;99.90;;;;;;5074054;28;20050;-45
2020/12/06 04:57:57;;;;;;;25.38;16.77;;;4.60;99.90;;;;;;5092571;28;20039;-44
2020/12/06 05:00:34;;;;;;;25.35;17.23;;;4.70;99.90;;;;;;5091412;28;20464;-51
2020/12/06 05:03:02;;;;;;;27.20;17.90;;;4.60;99.90;;;;;;5092151;28;20027;-47
2020/12/06 05:05:33;;;;;;;27.90;17.77;;;4.60;99.90;;;;;;5092440;28;20472;-46
2020/12/06 05:08:03;;;;;;;25.80;17.85;;;4.60;99.90;;;;;;5073820;28;20081;-48
2020/12/06 05:10:29;;;;;;;24.75;17.05;;;4.60;99.90;;;;;;5091365;28;20055;-45
2020/12/06 05:12:54;;;;;;;29.40;17.40;;;4.70;99.90;;;;;;5091961;28;20125;-44
2020/12/06 05:15:20;;;;;;;28.67;18.23;;;4.80;99.90;;;;;;5091908;28;20039;-48
2020/12/06 05:17:45;;;;;;;30.58;18.90;;;4.70;99.90;;;;;;5073633;28;20044;-49
2020/12/06 05:20:11;;;;;;;29.15;17.10;;;4.90;99.90;;;;;;5090505;28;20044;-48
2020/12/06 05:22:45;;;;;;;27.00;18.52;;;4.80;99.90;;;;;;5091740;28;20030;-48
2020/12/06 05:25:11;;;;;;;29.08;17.75;;;4.70;99.90;;;;;;5091599;28;20172;-47
2020/12/06 05:27:37;;;;;;;28.15;17.60;;;4.70;99.90;;;;;;5091761;28;20074;-49
2020/12/06 05:30:03;;;;;;;29.95;19.02;;;4.70;99.90;;;;;;5090530;28;20028;-46
2020/12/06 05:32:29;;;;;;;28.40;18.75;;;4.60;99.90;;;;;;5091405;28;20020;-49
2020/12/06 05:34:54;;;;;;;23.92;17.10;;;4.70;99.90;;;;;;5091411;28;20043;-48
2020/12/06 05:37:20;;;;;;;28.00;18.90;;;4.70;99.90;;;;;;5090557;28;20016;-50
2020/12/06 05:39:45;;;;;;;26.70;17.50;;;4.70;99.90;;;;;;5090594;28;20024;-47
2020/12/06 05:42:11;;;;;;;27.73;18.73;;;4.80;99.90;;;;;;5091456;28;20031;-45
2020/12/06 05:44:37;;;;;;;24.50;17.65;;;4.70;99.90;;;;;;5091987;28;20126;-45
2020/12/06 05:47:12;;;;;;;31.80;20.60;;;4.80;99.90;;;;;;5091424;28;20595;-51
2020/12/06 05:49:38;;;;;;;32.15;20.58;;;4.70;99.90;;;;;;5072208;28;20016;-52
2020/12/06 05:52:03;;;;;;;27.00;17.80;;;4.70;99.90;;;;;;5091144;28;20035;-47
2020/12/06 05:54:30;;;;;;;32.42;19.55;;;4.70;99.90;;;;;;5091072;28;20085;-45
2020/12/06 05:56:57;;;;;;;29.60;19.25;;;4.70;99.90;;;;;;5091086;28;20127;-47
2020/12/06 05:59:23;;;;;;;32.75;20.80;;;4.80;99.90;;;;;;5089091;28;20140;-49
2020/12/06 06:01:52;;;;;;;35.00;21.65;;;5.00;99.90;;;;;;5090634;28;20023;-46
2020/12/06 06:04:20;;;;;;;29.33;19.15;;;4.90;99.90;;;;;;5090906;28;20111;-47
2020/12/06 06:06:49;;;;;;;29.65;19.65;;;4.90;99.90;;;;;;5091031;28;20103;-49
2020/12/06 06:09:17;;;;;;;33.05;20.77;;;4.90;99.90;;;;;;5090360;28;20028;-45
2020/12/06 06:11:55;;;;;;;37.17;21.80;;;4.90;99.90;;;;;;5090874;28;20024;-47
2020/12/06 06:14:22;;;;;;;31.98;20.35;;;4.90;99.90;;;;;;5090787;28;20027;-45
2020/12/06 06:16:48;;;;;;;34.58;21.20;;;5.00;99.90;;;;;;5090801;28;20035;-49
2020/12/06 06:19:15;;;;;;;34.75;20.73;;;5.10;99.90;;;;;;5090287;28;20050;-51
2020/12/06 06:21:43;;;;;;;34.20;20.23;;;5.10;99.90;;;;;;5090323;28;20031;-48
2020/12/06 06:24:13;;;;;;;34.05;21.77;;;5.10;99.90;;;;;;5072472;28;20400;-47
2020/12/06 06:26:45;;;;;;;33.05;20.15;;;5.00;99.90;;;;;;5090593;28;20020;-49
2020/12/06 06:29:12;;;;;;;30.35;20.10;;;4.90;99.90;;;;;;5090303;28;20059;-48
2020/12/06 06:31:40;;;;;;;28.83;19.67;;;4.90;99.90;;;;;;5072223;28;20114;-47
2020/12/06 06:34:06;;;;;;;31.63;19.65;;;4.90;99.90;;;;;;5090630;28;20020;-48
2020/12/06 06:36:34;;;;;;;31.58;21.50;;;4.90;99.90;;;;;;5090843;28;20104;-45
2020/12/06 06:39:01;;;;;;;33.92;21.38;;;4.90;99.90;;;;;;5072685;28;20123;-46
2020/12/06 06:41:28;;;;;;;35.05;21.45;;;5.10;99.90;;;;;;5089586;28;20096;-50
2020/12/06 06:44:08;;;;;;;34.72;21.20;;;5.20;99.90;;;;;;5090800;28;20028;-50
2020/12/06 06:46:35;;;;;;;35.25;20.83;;;5.10;99.90;;;;;;5072664;28;20031;-46
2020/12/06 06:49:12;;;;;;;32.42;19.90;;;5.00;99.90;;;;;;5094663;28;20024;-52
2020/12/06 06:51:38;;;;;;;38.00;20.70;;;4.90;99.90;;;;;;5094684;28;20463;-47
2020/12/06 06:54:06;;;;;;;34.88;20.85;;;5.10;99.90;;;;;;5094492;28;20076;-47
2020/12/06 06:56:49;;;;;;;31.98;19.67;;;5.20;99.90;;;;;;5094676;28;20024;-44
2020/12/06 06:59:14;;;;;;;37.45;22.10;;;5.20;99.90;;;;;;5092082;28;20024;-50
2020/12/06 07:01:50;;;;;;;33.78;21.25;;;5.10;99.90;;;;;;5094105;28;20028;-45
2020/12/06 07:04:19;;;;;;;37.78;22.13;;;5.10;99.90;;;;;;5094610;28;20059;-48
2020/12/06 07:06:51;;;;;;;34.63;21.25;;;5.10;99.90;;;;;;5094197;28;20540;-51
2020/12/06 07:09:25;;;;;;;38.63;22.20;;;5.00;99.90;;;;;;5093702;28;20330;-48
2020/12/06 07:11:54;;;;;;;37.45;21.92;;;5.00;99.90;;;;;;5075799;28;20028;-49
2020/12/06 07:14:22;;;;;;;40.15;22.25;;;4.90;99.90;;;;;;5094043;28;20036;-52
2020/12/06 07:16:48;;;;;;;38.25;22.45;;;5.00;99.90;;;;;;5075988;28;20039;-48
2020/12/06 07:19:13;;;;;;;36.97;20.92;;;5.10;99.90;;;;;;5093633;28;20020;-44
2020/12/06 07:21:39;;;;;;;37.88;21.20;;;5.10;99.90;;;;;;5093722;28;20233;-48
2020/12/06 07:24:05;;;;;;;41.58;23.23;;;5.10;99.90;;;;;;5093886;28;20105;-45
2020/12/06 07:26:31;;;;;;;40.38;23.05;;;5.10;99.90;;;;;;5093866;28;20020;-50
2020/12/06 07:28:57;;;;;;;39.03;22.77;;;5.10;99.90;;;;;;5093797;28;20078;-48
2020/12/06 07:31:25;;;;;;;37.83;22.08;;;5.00;99.90;;;;;;5093019;28;20501;-49
2020/12/06 07:33:51;;;;;;;35.97;21.80;;;4.90;99.90;;;;;;5093678;28;20076;-44
2020/12/06 07:36:16;;;;;;;39.60;21.75;;;4.80;99.90;;;;;;5093594;28;20028;-48
2020/12/06 07:38:43;;;;;;;35.40;22.05;;;4.90;99.90;;;;;;5093647;28;20035;-51
2020/12/06 07:41:08;;;;;;;33.08;20.77;;;4.80;99.90;;;;;;5092574;28;20542;-51
2020/12/06 07:43:34;;;;;;;30.92;20.83;;;4.80;99.90;;;;;;5093517;28;20024;-49
2020/12/06 07:46:17;;;;;;;35.08;21.85;;;4.80;99.90;;;;;;5093358;28;20053;-49
2020/12/06 07:48:43;;;;;;;33.55;20.55;;;4.80;99.90;;;;;;5093332;28;20112;-50
2020/12/06 07:51:09;;;;;;;35.95;22.67;;;4.80;99.90;;;;;;5092689;28;20028;-48
2020/12/06 07:53:49;;;;;;;35.13;20.95;;;4.90;99.90;;;;;;5093426;28;20206;-46
2020/12/06 07:56:19;;;;;;;32.10;21.05;;;4.90;99.90;;;;;;5093157;28;20401;-46
2020/12/06 07:59:06;;;;;;;32.15;20.48;;;4.80;99.90;;;;;;5091605;28;20030;-49
2020/12/06 08:01:31;;;;;;;30.60;19.65;;;4.80;99.90;;;;;;5092501;28;20028;-52
2020/12/06 08:03:59;;;;;;;32.83;20.85;;;4.80;99.90;;;;;;5075003;28;20377;-47
2020/12/06 08:06:27;;;;;;;37.65;22.45;;;4.90;99.90;;;;;;5093189;28;20044;-47
2020/12/06 08:08:57;;;;;;;30.85;20.95;;;4.80;99.90;;;;;;5093217;28;20063;-45
2020/12/06 08:11:30;;;;;;;36.22;22.25;;;4.70;99.90;;;;;;5092245;28;20027;-52
2020/12/06 08:13:56;;;;;;;33.63;21.30;;;4.70;99.90;;;;;;5074752;28;20028;-49
2020/12/06 08:16:21;;;;;;;37.75;21.95;;;4.70;99.90;;;;;;5092862;28;20020;-51
2020/12/06 08:19:00;;;;;;;37.05;21.77;;;4.70;99.90;;;;;;5092956;28;20405;-51
2020/12/06 08:21:43;;;;;;;33.70;20.73;;;4.70;99.90;;;;;;5116153;22;20139;-48
2020/12/06 08:24:22;;;;;;;31.90;19.85;;;4.70;99.90;;;;;;5094429;28;20031;-53
2020/12/06 08:26:50;;;;;;;33.40;20.67;;;4.70;99.90;;;;;;5112699;28;20059;-48
2020/12/06 08:29:16;;;;;;;33.70;21.13;;;4.70;99.90;;;;;;5093837;28;20047;-51
2020/12/06 08:31:42;;;;;;;33.10;21.15;;;4.80;99.90;;;;;;5093155;28;20203;-49
2020/12/06 08:34:10;;;;;;;32.13;20.23;;;4.80;99.90;;;;;;5112623;28;20123;-51
2020/12/06 08:36:36;;;;;;;33.47;20.63;;;4.90;99.90;;;;;;5112535;28;20020;-50
2020/12/06 08:39:02;;;;;;;30.65;21.17;;;4.90;99.90;;;;;;5112505;28;20088;-52
2020/12/06 08:41:27;;;;;;;35.30;21.90;;;4.80;99.90;;;;;;5111578;28;20032;-52
2020/12/06 08:44:00;;;;;;;29.23;19.90;;;4.80;99.90;;;;;;5094193;28;20549;-50
2020/12/06 08:46:25;;;;;;;29.83;20.60;;;4.90;99.90;;;;;;5094209;28;20028;-49
2020/12/06 08:48:53;;;;;;;33.03;20.08;;;4.80;99.90;;;;;;5112520;28;20015;-53
2020/12/06 08:51:36;;;;;;;33.72;22.50;;;4.90;99.90;;;;;;5111465;28;20605;-50
2020/12/06 08:54:07;;;;;;;36.60;22.88;;;5.10;99.90;;;;;;5112364;28;20553;-51
2020/12/06 08:56:34;;;;;;;35.55;20.83;;;5.20;99.90;;;;;;5094208;28;20076;-51
2020/12/06 08:59:10;;;;;;;34.72;22.08;;;5.10;99.90;;;;;;5112336;28;20107;-52
2020/12/06 09:01:53;;;;;;;36.10;21.20;;;5.10;99.90;;;;;;5111996;28;20027;-52
2020/12/06 09:04:19;;;;;;;36.17;23.15;;;5.10;99.90;;;;;;5112684;28;20480;-47
2020/12/06 09:06:45;;;;;;;37.17;23.98;;;5.10;99.90;;;;;;5112533;28;20031;-47
2020/12/06 09:09:11;;;;;;;41.03;24.35;;;5.20;99.90;;;;;;5093766;28;20015;-49
2020/12/06 09:11:37;;;;;;;43.42;24.60;;;5.20;99.90;;;;;;5092488;28;20104;-47
2020/12/06 09:14:03;;;;;;;37.97;23.52;;;5.20;99.90;;;;;;5112338;28;20027;-52
2020/12/06 09:16:28;;;;;;;38.92;22.63;;;5.10;99.90;;;;;;5112182;28;20447;-52
2020/12/06 09:18:54;;;;;;;32.05;20.80;;;5.10;99.90;;;;;;5112127;28;20098;-50
2020/12/06 09:21:20;;;;;;;34.50;22.70;;;5.20;99.90;;;;;;5111283;28;20031;-53
2020/12/06 09:23:46;;;;;;;34.78;22.05;;;5.20;99.90;;;;;;5112187;28;20434;-49
2020/12/06 09:26:12;;;;;;;37.88;23.02;;;5.10;99.90;;;;;;5111847;28;20436;-49
2020/12/06 09:28:37;;;;;;;39.08;21.73;;;5.20;99.90;;;;;;5111863;28;20047;-51
2020/12/06 09:31:03;;;;;;;33.60;21.50;;;5.10;99.90;;;;;;5110950;28;20051;-50
2020/12/06 09:33:29;;;;;;;36.78;21.73;;;5.10;99.90;;;;;;5111640;28;20023;-52
2020/12/06 09:35:54;;;;;;;35.28;21.52;;;5.00;99.90;;;;;;5111544;28;20024;-50
2020/12/06 09:38:20;;;;;;;36.60;22.77;;;5.20;99.90;;;;;;5111232;28;20028;-52
2020/12/06 09:40:46;;;;;;;38.55;22.48;;;5.20;99.90;;;;;;5110457;28;20031;-48
2020/12/06 09:43:11;;;;;;;45.00;25.08;;;5.20;99.90;;;;;;5111311;28;20077;-50
2020/12/06 09:45:38;;;;;;;39.85;22.33;;;5.20;99.90;;;;;;5111380;28;20030;-53
2020/12/06 09:48:04;;;;;;;39.45;22.95;;;5.10;99.90;;;;;;5110976;28;20023;-51
2020/12/06 09:50:30;;;;;;;38.80;22.48;;;5.10;99.90;;;;;;5110611;28;20082;-52
2020/12/06 09:52:55;;;;;;;42.42;24.63;;;5.10;99.90;;;;;;5111061;28;20051;-53
2020/12/06 09:55:21;;;;;;;37.38;22.50;;;5.30;99.90;;;;;;5111497;28;20107;-50
2020/12/06 09:57:47;;;;;;;37.22;22.65;;;5.20;99.90;;;;;;5111437;28;20035;-50
2020/12/06 10:00:12;;;;;;;38.83;23.20;;;5.10;99.90;;;;;;5109419;28;20024;-53
2020/12/06 10:02:38;;;;;;;38.72;22.40;;;5.10;99.90;;;;;;5111426;28;20020;-56
2020/12/06 10:05:03;;;;;;;40.75;24.17;;;5.20;99.90;;;;;;5111258;28;20015;-51
2020/12/06 10:07:29;;;;;;;38.25;22.25;;;5.30;99.90;;;;;;5111035;28;20106;-49
2020/12/06 10:09:54;;;;;;;39.25;23.20;;;5.40;99.90;;;;;;5110321;28;20470;-51
2020/12/06 10:12:20;;;;;;;41.92;23.88;;;5.40;99.90;;;;;;5111445;28;20038;-53
2020/12/06 10:14:45;;;;;;;38.90;22.45;;;5.40;99.90;;;;;;5111131;28;20414;-52
2020/12/06 10:17:11;;;;;;;42.97;23.90;;;5.40;99.90;;;;;;5111355;28;20035;-51
2020/12/06 10:19:37;;;;;;;42.00;24.02;;;5.40;99.90;;;;;;5110003;28;20125;-48
2020/12/06 10:22:03;;;;;;;40.55;23.60;;;5.40;99.90;;;;;;5110376;28;20055;-52
2020/12/06 10:24:29;;;;;;;44.70;26.38;;;5.50;99.90;;;;;;5110885;28;20058;-49
2020/12/06 10:26:55;;;;;;;44.35;23.73;;;5.50;99.90;;;;;;5111104;28;20030;-52
2020/12/06 10:29:21;;;;;;;43.03;24.63;;;5.50;99.90;;;;;;5110617;28;20023;-48
2020/12/06 10:31:54;;;;;;;42.58;23.77;;;5.40;99.90;;;;;;5109480;28;20465;-50
2020/12/06 10:34:20;;;;;;;42.22;25.67;;;5.30;99.90;;;;;;5110826;28;20026;-46
2020/12/06 10:36:54;;;;;;;40.67;23.70;;;5.30;99.90;;;;;;5110442;28;20047;-47
2020/12/06 10:39:20;;;;;;;41.72;22.63;;;5.30;99.90;;;;;;5109845;28;20027;-46
2020/12/06 10:41:56;;;;;;;40.25;24.17;;;5.30;99.90;;;;;;5110359;28;20430;-48
2020/12/06 10:44:23;;;;;;;41.50;23.92;;;5.30;99.90;;;;;;5110496;28;20344;-49
2020/12/06 10:46:50;;;;;;;38.80;23.23;;;5.30;99.90;;;;;;5110820;28;20074;-49
2020/12/06 10:49:15;;;;;;;37.25;22.67;;;5.30;99.90;;;;;;5109873;28;20015;-49
2020/12/06 10:51:42;;;;;;;43.03;23.20;;;5.30;99.90;;;;;;5110289;28;20031;-50
2020/12/06 10:54:08;;;;;;;38.38;23.58;;;5.30;99.90;;;;;;5110411;28;20031;-50
2020/12/06 10:56:36;;;;;;;44.72;23.17;;;5.30;99.90;;;;;;5110694;28;20034;-50
2020/12/06 10:59:01;;;;;;;39.35;23.75;;;5.40;99.90;;;;;;5110380;28;20465;-48
2020/12/06 11:01:28;;;;;;;41.53;21.98;;;5.30;99.90;;;;;;5109545;28;20031;-49
2020/12/06 11:03:53;;;;;;;42.47;23.38;;;5.30;99.90;;;;;;5110243;28;20062;-49
2020/12/06 11:06:23;;;;;;;39.20;22.73;;;5.30;99.90;;;;;;5110261;28;20051;-47
2020/12/06 11:08:49;;;;;;;47.97;24.45;;;5.20;99.90;;;;;;5110654;28;20022;-50
2020/12/06 11:11:16;;;;;;;46.08;24.27;;;5.20;99.90;;;;;;5110060;28;20027;-52
2020/12/06 11:13:42;;;;;;;39.97;23.40;;;5.20;99.90;;;;;;5110716;28;20066;-53
2020/12/06 11:16:08;;;;;;;41.60;24.27;;;5.20;99.90;;;;;;5110678;28;20039;-51
2020/12/06 11:18:34;;;;;;;41.05;23.95;;;5.20;99.90;;;;;;5110447;28;20055;-51
2020/12/06 11:20:59;;;;;;;37.28;21.65;;;5.30;99.90;;;;;;5109297;28;20075;-48
2020/12/06 11:23:25;;;;;;;39.75;22.58;;;5.30;99.90;;;;;;5110591;28;20016;-47
2020/12/06 11:25:51;;;;;;;41.00;21.80;;;5.30;99.90;;;;;;5092678;28;20024;-52
2020/12/06 11:28:16;;;;;;;41.67;21.90;;;5.30;99.90;;;;;;5110511;28;20028;-46
2020/12/06 11:30:42;;;;;;;39.25;22.02;;;5.40;99.90;;;;;;5109680;28;20079;-52
2020/12/06 11:33:08;;;;;;;36.53;20.73;;;5.50;99.90;;;;;;5108375;28;20565;-49
2020/12/06 11:35:33;;;;;;;31.50;20.02;;;5.50;99.90;;;;;;5106137;28;20034;-51
2020/12/06 11:37:59;;;;;;;36.25;21.13;;;5.50;99.90;;;;;;5098317;28;20028;-54
2020/12/06 11:40:24;;;;;;;34.20;20.42;;;5.50;99.90;;;;;;5093953;28;20090;-51
2020/12/06 11:42:50;;;;;;;33.55;19.70;;;5.50;99.90;;;;;;5114639;28;20049;-53
2020/12/06 11:45:15;;;;;;;33.70;19.58;;;5.50;99.90;;;;;;5114010;28;20024;-50
2020/12/06 11:47:41;;;;;;;38.08;23.02;;;5.40;99.90;;;;;;5094001;28;20052;-50
2020/12/06 11:50:07;;;;;;;37.67;21.02;;;5.50;99.90;;;;;;5099510;28;20073;-53
2020/12/06 11:52:32;;;;;;;34.80;21.75;;;5.50;99.90;;;;;;5094167;28;20027;-51
2020/12/06 11:54:58;;;;;;;33.20;20.20;;;5.50;99.90;;;;;;5105409;28;20028;-51
2020/12/06 11:57:23;;;;;;;40.63;23.63;;;5.50;99.90;;;;;;5093834;28;20080;-52
2020/12/06 11:59:49;;;;;;;37.55;21.27;;;5.60;99.90;;;;;;5093045;28;20054;-49
2020/12/06 12:02:15;;;;;;;35.47;19.30;;;5.60;99.90;;;;;;5111024;28;20087;-50
2020/12/06 12:04:40;;;;;;;35.47;20.75;;;5.60;99.90;;;;;;5108228;28;20016;-52
2020/12/06 12:07:06;;;;;;;33.50;20.17;;;5.70;99.90;;;;;;5113956;28;20477;-55
2020/12/06 12:09:31;;;;;;;37.25;21.27;;;5.60;99.90;;;;;;5108174;28;20028;-55
2020/12/06 12:11:57;;;;;;;35.95;20.35;;;5.60;99.90;;;;;;5102485;28;20028;-50
2020/12/06 12:14:22;;;;;;;31.48;20.50;;;5.50;99.90;;;;;;5093169;28;20028;-49
2020/12/06 12:16:48;;;;;;;31.25;20.50;;;5.50;99.90;;;;;;5101218;28;20024;-52
2020/12/06 12:19:13;;;;;;;30.52;20.00;;;5.50;99.90;;;;;;5113028;28;20091;-51
2020/12/06 12:21:39;;;;;;;35.92;21.95;;;5.50;99.90;;;;;;5112150;28;20039;-52
2020/12/06 12:24:05;;;;;;;33.85;20.58;;;5.50;99.90;;;;;;5094453;28;20024;-51
2020/12/06 12:26:31;;;;;;;34.22;20.40;;;5.50;99.90;;;;;;5111413;28;20027;-51
2020/12/06 12:28:56;;;;;;;34.45;21.05;;;5.60;99.90;;;;;;5101149;28;20020;-51
2020/12/06 12:31:22;;;;;;;30.55;19.55;;;5.70;99.90;;;;;;5112035;28;20035;-55
2020/12/06 12:33:48;;;;;;;36.60;20.55;;;5.80;99.90;;;;;;5104328;28;20099;-56